sensor_id;sensor_type;location;lat;lon;timestamp;P1;durP1;ratioP1;P2;durP2;ratioP2
42944;SDS011;28584;42.636;23.294;2023-06-14T00:00:17;1967.97;;;999.90;;
42944;SDS011;28584;42.636;23.294;2023-06-14T00:02:42;1946.55;;;999.90;;
42944;SDS011;28584;42.636;23.294;2023-06-14T00:05:07;1884.57;;;999.90;;
42944;SDS011;28584;42.636;23.294;2023-06-14T00:07:34;1938.72;;;999.90;;
42944;SDS011;28584;42.636;23.294;2023-06-14T00:10:00;1918.85;;;999.90;;
42944;SDS011;28584;42.636;23.294;2023-06-14T00:12:26;1956.15;;;999.90;;
42944;SDS011;28584;42.636;23.294;2023-06-14T00:14:52;1929.97;;;999.90;;
42944;SDS011;28584;42.636;23.294;2023-06-14T00:17:17;1881.13;;;999.90;;
42944;SDS011;28584;42.636;23.294;2023-06-14T00:19:43;1833.80;;;997.13;;
42944;SDS011;28584;42.636;23.294;2023-06-14T00:22:08;1941.50;;;999.90;;
42944;SDS011;28584;42.636;23.294;2023-06-14T00:24:34;1978.90;;;999.90;;
42944;SDS011;28584;42.636;23.294;2023-06-14T00:27:00;1947.72;;;999.90;;
42944;SDS011;28584;42.636;23.294;2023-06-14T00:29:25;1977.00;;;999.90;;
42944;SDS011;28584;42.636;23.294;2023-06-14T00:31:51;1984.15;;;999.90;;
42944;SDS011;28584;42.636;23.294;2023-06-14T00:34:16;1994.53;;;999.90;;
42944;SDS011;28584;42.636;23.294;2023-06-14T00:36:41;1982.13;;;999.90;;
42944;SDS011;28584;42.636;23.294;2023-06-14T00:39:07;1960.00;;;999.90;;
42944;SDS011;28584;42.636;23.294;2023-06-14T00:41:32;1858.20;;;997.53;;
42944;SDS011;28584;42.636;23.294;2023-06-14T00:43:57;1897.88;;;999.90;;
42944;SDS011;28584;42.636;23.294;2023-06-14T00:46:24;1915.45;;;999.90;;
42944;SDS011;28584;42.636;23.294;2023-06-14T00:48:50;1873.25;;;999.90;;
42944;SDS011;28584;42.636;23.294;2023-06-14T00:51:16;1889.22;;;999.90;;
42944;SDS011;28584;42.636;23.294;2023-06-14T00:53:41;1988.32;;;999.90;;
42944;SDS011;28584;42.636;23.294;2023-06-14T00:56:11;1979.65;;;999.90;;
42944;SDS011;28584;42.636;23.294;2023-06-14T00:58:38;1953.93;;;999.90;;
42944;SDS011;28584;42.636;23.294;2023-06-14T01:01:04;1900.57;;;999.90;;
42944;SDS011;28584;42.636;23.294;2023-06-14T01:03:29;1999.90;;;999.90;;
42944;SDS011;28584;42.636;23.294;2023-06-14T01:05:59;1902.78;;;999.90;;
42944;SDS011;28584;42.636;23.294;2023-06-14T01:11:22;1999.90;;;999.90;;
42944;SDS011;28584;42.636;23.294;2023-06-14T01:14:03;1999.90;;;999.90;;
42944;SDS011;28584;42.636;23.294;2023-06-14T01:16:29;1999.90;;;999.90;;
42944;SDS011;28584;42.636;23.294;2023-06-14T01:18:56;1999.90;;;999.90;;
42944;SDS011;28584;42.636;23.294;2023-06-14T01:21:23;1990.65;;;999.90;;
42944;SDS011;28584;42.636;23.294;2023-06-14T01:23:50;1999.90;;;999.90;;
42944;SDS011;28584;42.636;23.294;2023-06-14T01:26:20;1999.90;;;999.90;;
42944;SDS011;28584;42.636;23.294;2023-06-14T01:28:46;1999.90;;;999.90;;
42944;SDS011;28584;42.636;23.294;2023-06-14T01:31:17;1999.90;;;999.90;;
42944;SDS011;28584;42.636;23.294;2023-06-14T01:33:46;1999.90;;;999.90;;
42944;SDS011;28584;42.636;23.294;2023-06-14T01:36:14;1999.90;;;999.90;;
42944;SDS011;28584;42.636;23.294;2023-06-14T01:38:41;1999.90;;;999.90;;
42944;SDS011;28584;42.636;23.294;2023-06-14T01:41:09;1999.90;;;999.90;;
42944;SDS011;28584;42.636;23.294;2023-06-14T01:43:35;1999.90;;;999.90;;
42944;SDS011;28584;42.636;23.294;2023-06-14T01:46:01;1999.90;;;999.90;;
42944;SDS011;28584;42.636;23.294;2023-06-14T01:48:28;1998.47;;;999.90;;
42944;SDS011;28584;42.636;23.294;2023-06-14T01:50:53;1996.20;;;999.90;;
42944;SDS011;28584;42.636;23.294;2023-06-14T01:53:18;1987.75;;;999.90;;
42944;SDS011;28584;42.636;23.294;2023-06-14T01:55:44;1989.40;;;999.90;;
42944;SDS011;28584;42.636;23.294;2023-06-14T01:58:13;1979.05;;;999.90;;
42944;SDS011;28584;42.636;23.294;2023-06-14T02:00:41;1908.57;;;999.90;;
42944;SDS011;28584;42.636;23.294;2023-06-14T02:03:08;1939.35;;;999.90;;
42944;SDS011;28584;42.636;23.294;2023-06-14T02:05:34;1873.13;;;999.90;;
42944;SDS011;28584;42.636;23.294;2023-06-14T02:07:59;1949.82;;;999.90;;
42944;SDS011;28584;42.636;23.294;2023-06-14T02:10:25;1881.10;;;999.90;;
42944;SDS011;28584;42.636;23.294;2023-06-14T02:12:51;1897.90;;;999.90;;
42944;SDS011;28584;42.636;23.294;2023-06-14T02:15:16;1905.30;;;999.90;;
42944;SDS011;28584;42.636;23.294;2023-06-14T02:17:43;1940.55;;;999.90;;
42944;SDS011;28584;42.636;23.294;2023-06-14T02:20:09;1886.30;;;999.67;;
42944;SDS011;28584;42.636;23.294;2023-06-14T02:22:35;1877.85;;;998.60;;
42944;SDS011;28584;42.636;23.294;2023-06-14T02:25:00;1947.85;;;999.90;;
42944;SDS011;28584;42.636;23.294;2023-06-14T02:27:25;1983.85;;;999.90;;
42944;SDS011;28584;42.636;23.294;2023-06-14T02:29:51;1996.65;;;999.90;;
42944;SDS011;28584;42.636;23.294;2023-06-14T02:32:16;1999.90;;;999.90;;
42944;SDS011;28584;42.636;23.294;2023-06-14T02:34:41;1999.90;;;999.90;;
42944;SDS011;28584;42.636;23.294;2023-06-14T02:37:07;1999.90;;;999.90;;
42944;SDS011;28584;42.636;23.294;2023-06-14T02:39:33;1999.90;;;999.90;;
42944;SDS011;28584;42.636;23.294;2023-06-14T02:41:58;1999.90;;;999.90;;
42944;SDS011;28584;42.636;23.294;2023-06-14T02:44:24;1999.90;;;999.90;;
42944;SDS011;28584;42.636;23.294;2023-06-14T02:46:53;1999.90;;;999.90;;
42944;SDS011;28584;42.636;23.294;2023-06-14T02:49:21;1998.40;;;999.90;;
42944;SDS011;28584;42.636;23.294;2023-06-14T02:51:47;1999.90;;;995.78;;
42944;SDS011;28584;42.636;23.294;2023-06-14T02:54:13;1994.05;;;999.90;;
42944;SDS011;28584;42.636;23.294;2023-06-14T02:56:38;1980.90;;;999.90;;
42944;SDS011;28584;42.636;23.294;2023-06-14T02:59:04;1993.55;;;999.90;;
42944;SDS011;28584;42.636;23.294;2023-06-14T03:01:29;1993.03;;;999.90;;
42944;SDS011;28584;42.636;23.294;2023-06-14T03:04:02;1965.82;;;999.90;;
42944;SDS011;28584;42.636;23.294;2023-06-14T03:06:28;1988.70;;;999.90;;
42944;SDS011;28584;42.636;23.294;2023-06-14T03:08:55;1953.72;;;999.90;;
42944;SDS011;28584;42.636;23.294;2023-06-14T03:11:25;1954.55;;;999.90;;
42944;SDS011;28584;42.636;23.294;2023-06-14T03:13:53;1961.55;;;999.90;;
42944;SDS011;28584;42.636;23.294;2023-06-14T03:16:20;1992.50;;;999.90;;
42944;SDS011;28584;42.636;23.294;2023-06-14T03:18:48;1997.68;;;999.90;;
42944;SDS011;28584;42.636;23.294;2023-06-14T03:21:14;1999.90;;;999.90;;
42944;SDS011;28584;42.636;23.294;2023-06-14T03:23:41;1934.05;;;999.90;;
42944;SDS011;28584;42.636;23.294;2023-06-14T03:26:06;1979.72;;;999.90;;
42944;SDS011;28584;42.636;23.294;2023-06-14T03:28:32;1916.13;;;999.90;;
42944;SDS011;28584;42.636;23.294;2023-06-14T03:30:57;1937.22;;;999.90;;
42944;SDS011;28584;42.636;23.294;2023-06-14T03:33:23;1926.82;;;999.90;;
42944;SDS011;28584;42.636;23.294;2023-06-14T03:35:50;1977.28;;;999.90;;
42944;SDS011;28584;42.636;23.294;2023-06-14T03:38:15;1962.60;;;999.90;;
42944;SDS011;28584;42.636;23.294;2023-06-14T03:40:40;1906.03;;;999.90;;
42944;SDS011;28584;42.636;23.294;2023-06-14T03:43:06;1823.63;;;999.90;;
42944;SDS011;28584;42.636;23.294;2023-06-14T03:45:31;1818.55;;;999.90;;
42944;SDS011;28584;42.636;23.294;2023-06-14T03:47:59;1862.65;;;999.90;;
42944;SDS011;28584;42.636;23.294;2023-06-14T03:50:25;1934.50;;;999.90;;
42944;SDS011;28584;42.636;23.294;2023-06-14T03:52:52;1926.05;;;999.90;;
42944;SDS011;28584;42.636;23.294;2023-06-14T03:55:17;1981.65;;;999.90;;
42944;SDS011;28584;42.636;23.294;2023-06-14T03:57:43;1932.05;;;999.90;;
42944;SDS011;28584;42.636;23.294;2023-06-14T04:00:09;1999.90;;;999.90;;
42944;SDS011;28584;42.636;23.294;2023-06-14T04:02:35;1974.55;;;999.90;;
42944;SDS011;28584;42.636;23.294;2023-06-14T04:05:01;1999.90;;;999.90;;
42944;SDS011;28584;42.636;23.294;2023-06-14T04:07:27;1999.90;;;999.90;;
42944;SDS011;28584;42.636;23.294;2023-06-14T04:09:53;1999.90;;;999.90;;
42944;SDS011;28584;42.636;23.294;2023-06-14T04:12:19;1988.88;;;999.90;;
42944;SDS011;28584;42.636;23.294;2023-06-14T04:14:45;1968.82;;;999.90;;
42944;SDS011;28584;42.636;23.294;2023-06-14T04:17:10;1901.55;;;999.90;;
42944;SDS011;28584;42.636;23.294;2023-06-14T04:19:36;1862.32;;;999.90;;
42944;SDS011;28584;42.636;23.294;2023-06-14T04:22:01;1966.68;;;999.90;;
42944;SDS011;28584;42.636;23.294;2023-06-14T04:24:27;1949.68;;;999.90;;
42944;SDS011;28584;42.636;23.294;2023-06-14T04:26:58;1938.90;;;999.90;;
42944;SDS011;28584;42.636;23.294;2023-06-14T04:29:24;1764.50;;;999.90;;
42944;SDS011;28584;42.636;23.294;2023-06-14T04:31:51;1999.90;;;999.90;;
42944;SDS011;28584;42.636;23.294;2023-06-14T04:34:17;1662.20;;;999.90;;
42944;SDS011;28584;42.636;23.294;2023-06-14T04:36:42;1080.00;;;973.28;;
42944;SDS011;28584;42.636;23.294;2023-06-14T04:39:14;1026.03;;;927.67;;
42944;SDS011;28584;42.636;23.294;2023-06-14T04:41:47;811.78;;;746.70;;
42944;SDS011;28584;42.636;23.294;2023-06-14T04:44:16;599.95;;;559.92;;
42944;SDS011;28584;42.636;23.294;2023-06-14T04:46:43;685.65;;;635.85;;
42944;SDS011;28584;42.636;23.294;2023-06-14T04:49:13;483.77;;;454.95;;
42944;SDS011;28584;42.636;23.294;2023-06-14T04:51:42;455.63;;;427.67;;
42944;SDS011;28584;42.636;23.294;2023-06-14T04:54:09;364.83;;;344.50;;
42944;SDS011;28584;42.636;23.294;2023-06-14T04:56:38;174.90;;;166.38;;
42944;SDS011;28584;42.636;23.294;2023-06-14T04:59:03;366.45;;;346.40;;
42944;SDS011;28584;42.636;23.294;2023-06-14T05:01:31;255.75;;;242.32;;
42944;SDS011;28584;42.636;23.294;2023-06-14T05:03:58;102.15;;;97.22;;
42944;SDS011;28584;42.636;23.294;2023-06-14T05:06:24;121.40;;;115.05;;
42944;SDS011;28584;42.636;23.294;2023-06-14T05:08:51;142.80;;;135.60;;
42944;SDS011;28584;42.636;23.294;2023-06-14T05:11:17;37.10;;;34.80;;
42944;SDS011;28584;42.636;23.294;2023-06-14T05:13:42;32.20;;;30.27;;
42944;SDS011;28584;42.636;23.294;2023-06-14T05:16:09;48.05;;;45.33;;
42944;SDS011;28584;42.636;23.294;2023-06-14T05:18:36;33.72;;;31.60;;
42944;SDS011;28584;42.636;23.294;2023-06-14T05:21:02;71.78;;;68.05;;
42944;SDS011;28584;42.636;23.294;2023-06-14T05:23:29;328.67;;;309.25;;
42944;SDS011;28584;42.636;23.294;2023-06-14T05:25:55;107.35;;;101.43;;
42944;SDS011;28584;42.636;23.294;2023-06-14T05:28:21;196.00;;;186.05;;
42944;SDS011;28584;42.636;23.294;2023-06-14T05:30:47;134.45;;;127.38;;
42944;SDS011;28584;42.636;23.294;2023-06-14T05:33:12;123.57;;;117.22;;
42944;SDS011;28584;42.636;23.294;2023-06-14T05:35:38;114.05;;;108.57;;
42944;SDS011;28584;42.636;23.294;2023-06-14T05:38:03;102.70;;;97.30;;
42944;SDS011;28584;42.636;23.294;2023-06-14T05:40:28;118.65;;;112.93;;
42944;SDS011;28584;42.636;23.294;2023-06-14T05:42:54;413.55;;;389.02;;
42944;SDS011;28584;42.636;23.294;2023-06-14T05:45:19;365.67;;;345.17;;
42944;SDS011;28584;42.636;23.294;2023-06-14T05:47:45;982.42;;;880.92;;
42944;SDS011;28584;42.636;23.294;2023-06-14T05:50:10;880.75;;;797.65;;
42944;SDS011;28584;42.636;23.294;2023-06-14T05:52:36;917.13;;;828.80;;
42944;SDS011;28584;42.636;23.294;2023-06-14T05:55:02;1459.13;;;970.13;;
42944;SDS011;28584;42.636;23.294;2023-06-14T05:57:28;1742.63;;;962.55;;
42944;SDS011;28584;42.636;23.294;2023-06-14T05:59:54;1999.90;;;999.90;;
42944;SDS011;28584;42.636;23.294;2023-06-14T06:02:19;1999.90;;;999.90;;
42944;SDS011;28584;42.636;23.294;2023-06-14T06:04:45;1973.18;;;999.90;;
42944;SDS011;28584;42.636;23.294;2023-06-14T06:07:10;1532.68;;;963.10;;
42944;SDS011;28584;42.636;23.294;2023-06-14T06:09:36;1840.07;;;999.05;;
42944;SDS011;28584;42.636;23.294;2023-06-14T06:12:02;1940.82;;;999.72;;
42944;SDS011;28584;42.636;23.294;2023-06-14T06:14:27;1579.28;;;988.45;;
42944;SDS011;28584;42.636;23.294;2023-06-14T06:16:53;1564.43;;;986.25;;
42944;SDS011;28584;42.636;23.294;2023-06-14T06:19:19;1359.50;;;972.05;;
42944;SDS011;28584;42.636;23.294;2023-06-14T06:21:44;1793.82;;;983.10;;
42944;SDS011;28584;42.636;23.294;2023-06-14T06:24:10;1823.53;;;999.90;;
42944;SDS011;28584;42.636;23.294;2023-06-14T06:26:35;1702.53;;;984.60;;
42944;SDS011;28584;42.636;23.294;2023-06-14T06:29:01;1266.95;;;944.00;;
42944;SDS011;28584;42.636;23.294;2023-06-14T06:31:26;1135.95;;;894.65;;
42944;SDS011;28584;42.636;23.294;2023-06-14T06:33:52;1199.00;;;945.45;;
42944;SDS011;28584;42.636;23.294;2023-06-14T06:36:19;1013.33;;;906.35;;
42944;SDS011;28584;42.636;23.294;2023-06-14T06:38:46;917.90;;;838.08;;
42944;SDS011;28584;42.636;23.294;2023-06-14T06:41:12;846.53;;;776.35;;
42944;SDS011;28584;42.636;23.294;2023-06-14T06:43:37;893.33;;;820.05;;
42944;SDS011;28584;42.636;23.294;2023-06-14T06:46:02;907.42;;;822.85;;
42944;SDS011;28584;42.636;23.294;2023-06-14T06:48:28;779.17;;;720.60;;
42944;SDS011;28584;42.636;23.294;2023-06-14T06:50:53;674.47;;;626.80;;
42944;SDS011;28584;42.636;23.294;2023-06-14T06:53:19;604.50;;;562.97;;
42944;SDS011;28584;42.636;23.294;2023-06-14T06:55:45;528.50;;;494.73;;
42944;SDS011;28584;42.636;23.294;2023-06-14T06:58:11;475.65;;;446.00;;
42944;SDS011;28584;42.636;23.294;2023-06-14T07:00:37;402.55;;;379.38;;
42944;SDS011;28584;42.636;23.294;2023-06-14T07:03:03;366.10;;;344.50;;
42944;SDS011;28584;42.636;23.294;2023-06-14T07:05:28;319.42;;;302.70;;
42944;SDS011;28584;42.636;23.294;2023-06-14T07:07:54;241.02;;;228.52;;
42944;SDS011;28584;42.636;23.294;2023-06-14T07:10:19;230.00;;;218.60;;
42944;SDS011;28584;42.636;23.294;2023-06-14T07:12:45;175.35;;;167.07;;
42944;SDS011;28584;42.636;23.294;2023-06-14T07:15:11;141.95;;;135.07;;
42944;SDS011;28584;42.636;23.294;2023-06-14T07:17:36;116.20;;;110.78;;
42944;SDS011;28584;42.636;23.294;2023-06-14T07:20:05;76.25;;;72.15;;
42944;SDS011;28584;42.636;23.294;2023-06-14T07:22:36;89.07;;;84.78;;
42944;SDS011;28584;42.636;23.294;2023-06-14T07:25:04;62.65;;;59.55;;
42944;SDS011;28584;42.636;23.294;2023-06-14T07:27:29;71.72;;;68.00;;
42944;SDS011;28584;42.636;23.294;2023-06-14T07:29:55;51.88;;;49.10;;
42944;SDS011;28584;42.636;23.294;2023-06-14T07:32:20;69.15;;;65.53;;
42944;SDS011;28584;42.636;23.294;2023-06-14T07:34:46;49.92;;;46.90;;
42944;SDS011;28584;42.636;23.294;2023-06-14T07:37:11;80.43;;;76.20;;
42944;SDS011;28584;42.636;23.294;2023-06-14T07:39:36;100.60;;;95.18;;
42944;SDS011;28584;42.636;23.294;2023-06-14T07:42:02;217.40;;;205.57;;
42944;SDS011;28584;42.636;23.294;2023-06-14T07:44:29;384.42;;;359.83;;
42944;SDS011;28584;42.636;23.294;2023-06-14T07:46:56;284.30;;;268.05;;
42944;SDS011;28584;42.636;23.294;2023-06-14T07:49:23;312.50;;;293.63;;
42944;SDS011;28584;42.636;23.294;2023-06-14T07:51:48;103.43;;;97.90;;
42944;SDS011;28584;42.636;23.294;2023-06-14T07:54:14;53.45;;;50.15;;
42944;SDS011;28584;42.636;23.294;2023-06-14T07:56:40;180.90;;;170.98;;
42944;SDS011;28584;42.636;23.294;2023-06-14T07:59:06;348.60;;;325.15;;
42944;SDS011;28584;42.636;23.294;2023-06-14T08:01:32;389.73;;;364.15;;
42944;SDS011;28584;42.636;23.294;2023-06-14T08:03:58;246.18;;;232.70;;
42944;SDS011;28584;42.636;23.294;2023-06-14T08:06:23;61.80;;;58.25;;
42944;SDS011;28584;42.636;23.294;2023-06-14T08:08:50;34.67;;;32.17;;
42944;SDS011;28584;42.636;23.294;2023-06-14T08:11:15;38.47;;;36.22;;
42944;SDS011;28584;42.636;23.294;2023-06-14T08:13:40;48.20;;;45.25;;
42944;SDS011;28584;42.636;23.294;2023-06-14T08:16:06;14.40;;;13.02;;
42944;SDS011;28584;42.636;23.294;2023-06-14T08:18:31;24.80;;;23.08;;
42944;SDS011;28584;42.636;23.294;2023-06-14T08:20:56;25.20;;;23.33;;
42944;SDS011;28584;42.636;23.294;2023-06-14T08:23:22;16.92;;;15.57;;
42944;SDS011;28584;42.636;23.294;2023-06-14T08:25:48;20.52;;;18.75;;
42944;SDS011;28584;42.636;23.294;2023-06-14T08:28:14;108.80;;;102.70;;
42944;SDS011;28584;42.636;23.294;2023-06-14T08:30:39;118.35;;;112.10;;
42944;SDS011;28584;42.636;23.294;2023-06-14T08:33:04;174.27;;;164.82;;
42944;SDS011;28584;42.636;23.294;2023-06-14T08:35:30;208.57;;;197.32;;
42944;SDS011;28584;42.636;23.294;2023-06-14T08:37:55;308.77;;;292.20;;
42944;SDS011;28584;42.636;23.294;2023-06-14T08:40:21;90.18;;;84.70;;
42944;SDS011;28584;42.636;23.294;2023-06-14T08:42:52;31.45;;;29.42;;
42944;SDS011;28584;42.636;23.294;2023-06-14T08:45:19;20.50;;;18.65;;
42944;SDS011;28584;42.636;23.294;2023-06-14T08:47:46;11.27;;;9.82;;
42944;SDS011;28584;42.636;23.294;2023-06-14T08:50:16;16.58;;;15.15;;
42944;SDS011;28584;42.636;23.294;2023-06-14T08:52:45;17.60;;;16.00;;
42944;SDS011;28584;42.636;23.294;2023-06-14T08:55:14;13.60;;;11.48;;
42944;SDS011;28584;42.636;23.294;2023-06-14T08:57:42;15.45;;;11.30;;
42944;SDS011;28584;42.636;23.294;2023-06-14T09:00:09;16.83;;;12.43;;
42944;SDS011;28584;42.636;23.294;2023-06-14T09:02:39;18.08;;;15.98;;
42944;SDS011;28584;42.636;23.294;2023-06-14T09:05:11;22.45;;;20.42;;
42944;SDS011;28584;42.636;23.294;2023-06-14T09:07:38;16.25;;;14.77;;
42944;SDS011;28584;42.636;23.294;2023-06-14T09:10:09;14.52;;;13.13;;
42944;SDS011;28584;42.636;23.294;2023-06-14T09:12:35;12.82;;;9.88;;
42944;SDS011;28584;42.636;23.294;2023-06-14T09:15:01;17.25;;;15.70;;
42944;SDS011;28584;42.636;23.294;2023-06-14T09:17:32;13.15;;;11.57;;
42944;SDS011;28584;42.636;23.294;2023-06-14T09:19:58;14.65;;;12.43;;
42944;SDS011;28584;42.636;23.294;2023-06-14T09:22:24;18.00;;;15.05;;
42944;SDS011;28584;42.636;23.294;2023-06-14T09:24:49;15.60;;;13.05;;
42944;SDS011;28584;42.636;23.294;2023-06-14T09:27:15;50.33;;;46.95;;
42944;SDS011;28584;42.636;23.294;2023-06-14T09:29:41;45.03;;;41.80;;
42944;SDS011;28584;42.636;23.294;2023-06-14T09:32:06;32.42;;;29.77;;
42944;SDS011;28584;42.636;23.294;2023-06-14T09:34:32;24.98;;;22.77;;
42944;SDS011;28584;42.636;23.294;2023-06-14T09:36:59;24.77;;;22.38;;
42944;SDS011;28584;42.636;23.294;2023-06-14T09:39:25;25.08;;;22.77;;
42944;SDS011;28584;42.636;23.294;2023-06-14T09:41:50;21.48;;;19.48;;
42944;SDS011;28584;42.636;23.294;2023-06-14T09:44:16;19.92;;;18.20;;
42944;SDS011;28584;42.636;23.294;2023-06-14T09:46:43;20.88;;;18.95;;
42944;SDS011;28584;42.636;23.294;2023-06-14T09:49:09;23.10;;;20.98;;
42944;SDS011;28584;42.636;23.294;2023-06-14T09:51:34;25.25;;;23.05;;
42944;SDS011;28584;42.636;23.294;2023-06-14T09:54:07;18.92;;;15.32;;
42944;SDS011;28584;42.636;23.294;2023-06-14T09:56:37;27.40;;;25.23;;
42944;SDS011;28584;42.636;23.294;2023-06-14T09:59:06;89.72;;;84.65;;
42944;SDS011;28584;42.636;23.294;2023-06-14T10:01:34;39.63;;;36.90;;
42944;SDS011;28584;42.636;23.294;2023-06-14T10:04:05;26.48;;;24.23;;
42944;SDS011;28584;42.636;23.294;2023-06-14T10:06:31;29.80;;;27.38;;
42944;SDS011;28584;42.636;23.294;2023-06-14T10:09:02;27.48;;;25.42;;
42944;SDS011;28584;42.636;23.294;2023-06-14T10:11:30;23.73;;;21.83;;
42944;SDS011;28584;42.636;23.294;2023-06-14T10:13:56;13.32;;;12.02;;
42944;SDS011;28584;42.636;23.294;2023-06-14T10:16:30;11.63;;;10.43;;
42944;SDS011;28584;42.636;23.294;2023-06-14T10:22:01;15.18;;;12.48;;
42944;SDS011;28584;42.636;23.294;2023-06-14T10:24:42;13.05;;;11.75;;
42944;SDS011;28584;42.636;23.294;2023-06-14T10:27:09;14.80;;;13.30;;
42944;SDS011;28584;42.636;23.294;2023-06-14T10:32:19;15.48;;;12.98;;
42944;SDS011;28584;42.636;23.294;2023-06-14T10:34:45;14.82;;;13.27;;
42944;SDS011;28584;42.636;23.294;2023-06-14T10:37:19;13.57;;;11.68;;
42944;SDS011;28584;42.636;23.294;2023-06-14T10:39:44;14.63;;;13.02;;
42944;SDS011;28584;42.636;23.294;2023-06-14T10:42:11;16.00;;;14.25;;
42944;SDS011;28584;42.636;23.294;2023-06-14T10:47:06;24.48;;;22.52;;
42944;SDS011;28584;42.636;23.294;2023-06-14T10:52:13;15.80;;;14.20;;
42944;SDS011;28584;42.636;23.294;2023-06-14T10:57:31;14.98;;;13.23;;
42944;SDS011;28584;42.636;23.294;2023-06-14T10:59:58;15.40;;;13.07;;
42944;SDS011;28584;42.636;23.294;2023-06-14T11:05:28;11.57;;;10.40;;
42944;SDS011;28584;42.636;23.294;2023-06-14T11:10:49;12.63;;;11.00;;
42944;SDS011;28584;42.636;23.294;2023-06-14T11:13:16;11.20;;;10.10;;
42944;SDS011;28584;42.636;23.294;2023-06-14T11:15:43;14.95;;;11.63;;
42944;SDS011;28584;42.636;23.294;2023-06-14T11:18:10;15.95;;;14.35;;
42944;SDS011;28584;42.636;23.294;2023-06-14T11:20:41;15.07;;;13.50;;
42944;SDS011;28584;42.636;23.294;2023-06-14T11:23:07;16.15;;;11.73;;
42944;SDS011;28584;42.636;23.294;2023-06-14T11:25:32;13.68;;;11.95;;
42944;SDS011;28584;42.636;23.294;2023-06-14T11:27:58;14.15;;;10.98;;
42944;SDS011;28584;42.636;23.294;2023-06-14T11:30:26;14.10;;;9.82;;
42944;SDS011;28584;42.636;23.294;2023-06-14T11:32:52;11.63;;;10.35;;
42944;SDS011;28584;42.636;23.294;2023-06-14T11:35:19;12.60;;;9.98;;
42944;SDS011;28584;42.636;23.294;2023-06-14T11:37:48;14.63;;;12.52;;
42944;SDS011;28584;42.636;23.294;2023-06-14T11:40:14;14.45;;;13.05;;
42944;SDS011;28584;42.636;23.294;2023-06-14T11:42:40;21.65;;;19.63;;
42944;SDS011;28584;42.636;23.294;2023-06-14T11:45:10;34.67;;;32.35;;
42944;SDS011;28584;42.636;23.294;2023-06-14T11:47:37;33.20;;;30.98;;
42944;SDS011;28584;42.636;23.294;2023-06-14T11:50:05;30.63;;;28.80;;
42944;SDS011;28584;42.636;23.294;2023-06-14T11:52:33;18.85;;;17.35;;
42944;SDS011;28584;42.636;23.294;2023-06-14T11:54:59;35.70;;;33.30;;
42944;SDS011;28584;42.636;23.294;2023-06-14T11:57:25;58.97;;;55.47;;
42944;SDS011;28584;42.636;23.294;2023-06-14T11:59:51;108.18;;;102.70;;
42944;SDS011;28584;42.636;23.294;2023-06-14T12:02:17;52.47;;;49.42;;
42944;SDS011;28584;42.636;23.294;2023-06-14T12:04:46;48.67;;;45.72;;
42944;SDS011;28584;42.636;23.294;2023-06-14T12:07:16;57.08;;;54.00;;
42944;SDS011;28584;42.636;23.294;2023-06-14T12:12:24;20.98;;;19.58;;
42944;SDS011;28584;42.636;23.294;2023-06-14T12:14:51;12.35;;;11.02;;
42944;SDS011;28584;42.636;23.294;2023-06-14T12:17:17;15.75;;;14.55;;
42944;SDS011;28584;42.636;23.294;2023-06-14T12:19:44;20.42;;;18.75;;
42944;SDS011;28584;42.636;23.294;2023-06-14T12:22:11;34.30;;;32.25;;
42944;SDS011;28584;42.636;23.294;2023-06-14T12:24:37;37.35;;;35.13;;
42944;SDS011;28584;42.636;23.294;2023-06-14T12:27:03;45.88;;;43.35;;
42944;SDS011;28584;42.636;23.294;2023-06-14T12:29:32;46.03;;;43.28;;
42944;SDS011;28584;42.636;23.294;2023-06-14T12:31:57;26.83;;;25.02;;
42944;SDS011;28584;42.636;23.294;2023-06-14T12:34:23;57.47;;;54.25;;
42944;SDS011;28584;42.636;23.294;2023-06-14T12:36:50;46.35;;;43.67;;
42944;SDS011;28584;42.636;23.294;2023-06-14T12:39:16;60.90;;;57.83;;
42944;SDS011;28584;42.636;23.294;2023-06-14T12:41:42;98.13;;;93.43;;
42944;SDS011;28584;42.636;23.294;2023-06-14T12:44:07;293.65;;;278.83;;
42944;SDS011;28584;42.636;23.294;2023-06-14T12:46:33;450.02;;;425.65;;
42944;SDS011;28584;42.636;23.294;2023-06-14T12:48:59;361.42;;;343.45;;
42944;SDS011;28584;42.636;23.294;2023-06-14T12:51:25;294.95;;;279.90;;
42944;SDS011;28584;42.636;23.294;2023-06-14T12:53:50;276.33;;;262.65;;
42944;SDS011;28584;42.636;23.294;2023-06-14T12:56:16;461.88;;;435.33;;
42944;SDS011;28584;42.636;23.294;2023-06-14T12:58:42;484.50;;;455.02;;
42944;SDS011;28584;42.636;23.294;2023-06-14T13:01:07;787.88;;;716.85;;
42944;SDS011;28584;42.636;23.294;2023-06-14T13:03:33;713.83;;;656.20;;
42944;SDS011;28584;42.636;23.294;2023-06-14T13:06:01;648.58;;;597.90;;
42944;SDS011;28584;42.636;23.294;2023-06-14T13:08:27;543.63;;;506.30;;
42944;SDS011;28584;42.636;23.294;2023-06-14T13:10:53;621.20;;;575.47;;
42944;SDS011;28584;42.636;23.294;2023-06-14T13:13:19;1504.07;;;952.55;;
42944;SDS011;28584;42.636;23.294;2023-06-14T13:15:44;1999.90;;;999.90;;
42944;SDS011;28584;42.636;23.294;2023-06-14T13:18:11;1999.90;;;999.90;;
42944;SDS011;28584;42.636;23.294;2023-06-14T13:20:38;1999.90;;;999.90;;
42944;SDS011;28584;42.636;23.294;2023-06-14T13:23:04;1999.90;;;999.90;;
42944;SDS011;28584;42.636;23.294;2023-06-14T13:25:32;1999.90;;;999.90;;
42944;SDS011;28584;42.636;23.294;2023-06-14T13:28:01;1999.90;;;999.90;;
42944;SDS011;28584;42.636;23.294;2023-06-14T13:30:27;1986.00;;;999.90;;
42944;SDS011;28584;42.636;23.294;2023-06-14T13:32:52;1999.90;;;999.90;;
42944;SDS011;28584;42.636;23.294;2023-06-14T13:35:18;1999.90;;;999.90;;
42944;SDS011;28584;42.636;23.294;2023-06-14T13:37:44;1799.55;;;999.30;;
42944;SDS011;28584;42.636;23.294;2023-06-14T13:40:10;1714.55;;;989.97;;
42944;SDS011;28584;42.636;23.294;2023-06-14T13:42:36;1663.70;;;990.42;;
42944;SDS011;28584;42.636;23.294;2023-06-14T13:45:02;1514.28;;;943.67;;
42944;SDS011;28584;42.636;23.294;2023-06-14T13:47:29;1345.70;;;880.13;;
42944;SDS011;28584;42.636;23.294;2023-06-14T13:49:55;1247.00;;;905.67;;
42944;SDS011;28584;42.636;23.294;2023-06-14T13:52:20;1226.15;;;912.72;;
42944;SDS011;28584;42.636;23.294;2023-06-14T13:54:46;1217.97;;;901.55;;
42944;SDS011;28584;42.636;23.294;2023-06-14T13:57:11;1564.13;;;982.40;;
42944;SDS011;28584;42.636;23.294;2023-06-14T13:59:38;1627.35;;;970.22;;
42944;SDS011;28584;42.636;23.294;2023-06-14T14:02:04;1564.97;;;959.67;;
42944;SDS011;28584;42.636;23.294;2023-06-14T14:04:30;1778.43;;;987.80;;
42944;SDS011;28584;42.636;23.294;2023-06-14T14:06:56;1964.60;;;999.90;;